sensor_id;sensor_type;location;lat;lon;timestamp;noise_LAeq;noise_LA_min;noise_LA_max;noise_LA01;noise_LA95
82733;Laerm;72790;51.538;5.968;2023-10-19T00:03:32;35;32.9;51.47;;
82733;Laerm;72790;51.538;5.968;2023-10-19T00:07:32;34.21;32.39;42.6;;
82733;Laerm;72790;51.538;5.968;2023-10-19T00:11:32;36.57;32.52;56.17;;
82733;Laerm;72790;51.538;5.968;2023-10-19T00:15:32;34.42;32.51;42.61;;
82733;Laerm;72790;51.538;5.968;2023-10-19T00:19:32;34.64;32.47;37.74;;
82733;Laerm;72790;51.538;5.968;2023-10-19T00:23:32;43.1;33.02;59.02;;
82733;Laerm;72790;51.538;5.968;2023-10-19T00:27:32;41.49;32.84;62.39;;
82733;Laerm;72790;51.538;5.968;2023-10-19T00:31:32;34.54;32.38;44.49;;
82733;Laerm;72790;51.538;5.968;2023-10-19T00:35:33;38.26;32.28;59.57;;
82733;Laerm;72790;51.538;5.968;2023-10-19T00:39:32;33.74;31.63;42.61;;
82733;Laerm;72790;51.538;5.968;2023-10-19T00:43:32;34.61;32.08;49.23;;
82733;Laerm;72790;51.538;5.968;2023-10-19T00:47:32;35.86;32.52;56.72;;
82733;Laerm;72790;51.538;5.968;2023-10-19T00:51:33;34.54;32.05;45.93;;
82733;Laerm;72790;51.538;5.968;2023-10-19T00:55:32;34.02;31.96;49.43;;
82733;Laerm;72790;51.538;5.968;2023-10-19T00:59:32;33.42;31.89;41.17;;
82733;Laerm;72790;51.538;5.968;2023-10-19T01:03:32;34.06;32.29;46.22;;
82733;Laerm;72790;51.538;5.968;2023-10-19T01:07:32;33.12;31.76;42.87;;
82733;Laerm;72790;51.538;5.968;2023-10-19T01:11:32;33.16;31.78;36.01;;
82733;Laerm;72790;51.538;5.968;2023-10-19T01:15:32;33.52;31.62;49.68;;
82733;Laerm;72790;51.538;5.968;2023-10-19T01:19:32;34.1;31.82;41.23;;
82733;Laerm;72790;51.538;5.968;2023-10-19T01:23:32;33.7;31.7;46.68;;
82733;Laerm;72790;51.538;5.968;2023-10-19T01:27:32;32.85;31.36;41.3;;
82733;Laerm;72790;51.538;5.968;2023-10-19T01:31:32;33.07;31.67;42.82;;
82733;Laerm;72790;51.538;5.968;2023-10-19T01:35:32;34.88;31.58;61.21;;
82733;Laerm;72790;51.538;5.968;2023-10-19T01:39:32;33.37;31.63;45.11;;
82733;Laerm;72790;51.538;5.968;2023-10-19T01:43:32;33.34;31.76;46.18;;
82733;Laerm;72790;51.538;5.968;2023-10-19T01:47:32;32.82;31.56;44.48;;
82733;Laerm;72790;51.538;5.968;2023-10-19T01:51:33;32.86;31.53;42.02;;
82733;Laerm;72790;51.538;5.968;2023-10-19T01:55:36;32.68;31.52;39.54;;
82733;Laerm;72790;51.538;5.968;2023-10-19T01:59:32;32.78;31.68;40.67;;
82733;Laerm;72790;51.538;5.968;2023-10-19T02:03:32;32.69;31.63;36.99;;
82733;Laerm;72790;51.538;5.968;2023-10-19T02:07:32;34.5;31.47;54.76;;
82733;Laerm;72790;51.538;5.968;2023-10-19T02:11:32;32.96;31.78;37.04;;
82733;Laerm;72790;51.538;5.968;2023-10-19T02:15:33;32.81;31.5;43.36;;
82733;Laerm;72790;51.538;5.968;2023-10-19T02:19:32;33.06;31.68;38.72;;
82733;Laerm;72790;51.538;5.968;2023-10-19T02:23:32;32.75;31.45;36.65;;
82733;Laerm;72790;51.538;5.968;2023-10-19T02:27:32;32.6;31.57;34.85;;
82733;Laerm;72790;51.538;5.968;2023-10-19T02:31:32;32.91;31.71;40.08;;
82733;Laerm;72790;51.538;5.968;2023-10-19T02:35:32;32.62;31.56;37.95;;
82733;Laerm;72790;51.538;5.968;2023-10-19T02:39:32;40.29;31.6;55.17;;
82733;Laerm;72790;51.538;5.968;2023-10-19T02:43:32;33.38;31.6;38.2;;
82733;Laerm;72790;51.538;5.968;2023-10-19T02:47:32;33.8;31.87;46.29;;
82733;Laerm;72790;51.538;5.968;2023-10-19T02:51:32;32.55;31.49;40.5;;
82733;Laerm;72790;51.538;5.968;2023-10-19T02:55:32;32.6;31.48;34.14;;
82733;Laerm;72790;51.538;5.968;2023-10-19T02:59:32;32.55;31.63;35.29;;
82733;Laerm;72790;51.538;5.968;2023-10-19T03:03:32;34.51;31.72;45.37;;
82733;Laerm;72790;51.538;5.968;2023-10-19T03:07:32;33.55;32.01;37.16;;
82733;Laerm;72790;51.538;5.968;2023-10-19T03:11:32;33.63;32;38.17;;
82733;Laerm;72790;51.538;5.968;2023-10-19T03:15:32;37.41;32.61;45.81;;
82733;Laerm;72790;51.538;5.968;2023-10-19T03:19:32;38.25;32.61;51.38;;
82733;Laerm;72790;51.538;5.968;2023-10-19T03:23:32;37.01;32.76;46.35;;
82733;Laerm;72790;51.538;5.968;2023-10-19T03:27:32;35.9;32.59;45.01;;
82733;Laerm;72790;51.538;5.968;2023-10-19T03:31:32;34.57;32.5;46.18;;
82733;Laerm;72790;51.538;5.968;2023-10-19T03:35:32;35.15;32.62;42.5;;
82733;Laerm;72790;51.538;5.968;2023-10-19T03:39:33;34.75;32.78;39.2;;
82733;Laerm;72790;51.538;5.968;2023-10-19T03:43:32;35.38;32.71;39.27;;
82733;Laerm;72790;51.538;5.968;2023-10-19T03:47:32;34.89;32.81;38.58;;
82733;Laerm;72790;51.538;5.968;2023-10-19T03:51:32;35.77;33.47;40.84;;
82733;Laerm;72790;51.538;5.968;2023-10-19T03:55:32;35.19;32.82;47.8;;
82733;Laerm;72790;51.538;5.968;2023-10-19T03:59:32;35.11;32.68;41.63;;
82733;Laerm;72790;51.538;5.968;2023-10-19T04:03:32;34.92;32.93;39.98;;
82733;Laerm;72790;51.538;5.968;2023-10-19T04:07:32;35.2;32.68;50.12;;
82733;Laerm;72790;51.538;5.968;2023-10-19T04:11:32;34.48;32.65;39.22;;
82733;Laerm;72790;51.538;5.968;2023-10-19T04:15:32;34.74;33.02;38.66;;
82733;Laerm;72790;51.538;5.968;2023-10-19T04:19:32;35.22;32.87;40.92;;
82733;Laerm;72790;51.538;5.968;2023-10-19T04:23:32;37.09;34.02;44.43;;
82733;Laerm;72790;51.538;5.968;2023-10-19T04:27:32;36.57;33.46;41.53;;
82733;Laerm;72790;51.538;5.968;2023-10-19T04:31:32;36.63;33.72;49.79;;
82733;Laerm;72790;51.538;5.968;2023-10-19T04:35:32;35.8;33.85;41.37;;
82733;Laerm;72790;51.538;5.968;2023-10-19T04:39:32;38.5;34.09;49.87;;
82733;Laerm;72790;51.538;5.968;2023-10-19T04:43:32;36.06;34.1;42.85;;
82733;Laerm;72790;51.538;5.968;2023-10-19T04:47:32;40.8;34.63;53.06;;
82733;Laerm;72790;51.538;5.968;2023-10-19T04:51:32;38.46;34.41;49.52;;
82733;Laerm;72790;51.538;5.968;2023-10-19T04:55:32;40.07;34.49;60.51;;
82733;Laerm;72790;51.538;5.968;2023-10-19T04:59:32;40.75;34.39;57.55;;
82733;Laerm;72790;51.538;5.968;2023-10-19T05:03:32;39.79;34.69;56.46;;
82733;Laerm;72790;51.538;5.968;2023-10-19T05:07:32;41.29;35.61;49.15;;
82733;Laerm;72790;51.538;5.968;2023-10-19T05:11:32;36.97;34.66;42.74;;
82733;Laerm;72790;51.538;5.968;2023-10-19T05:15:32;40.56;34.8;52.8;;
82733;Laerm;72790;51.538;5.968;2023-10-19T05:19:33;37.59;34.69;45.6;;
82733;Laerm;72790;51.538;5.968;2023-10-19T05:23:32;41.39;35.72;57.39;;
82733;Laerm;72790;51.538;5.968;2023-10-19T05:27:32;38.63;35.12;46.17;;
82733;Laerm;72790;51.538;5.968;2023-10-19T05:31:32;40.66;35.44;48.85;;
82733;Laerm;72790;51.538;5.968;2023-10-19T05:35:32;38.66;35.55;54.83;;
82733;Laerm;72790;51.538;5.968;2023-10-19T05:39:32;38.54;35.73;46.91;;
82733;Laerm;72790;51.538;5.968;2023-10-19T05:43:32;40.88;35.33;60.33;;
82733;Laerm;72790;51.538;5.968;2023-10-19T05:47:32;40.77;36.04;50.29;;
82733;Laerm;72790;51.538;5.968;2023-10-19T05:51:32;41.21;35.54;57.05;;
82733;Laerm;72790;51.538;5.968;2023-10-19T05:55:32;40.46;37.12;52.31;;
82733;Laerm;72790;51.538;5.968;2023-10-19T05:59:32;42.96;35.58;67.17;;
82733;Laerm;72790;51.538;5.968;2023-10-19T06:03:32;40.1;35.75;56.18;;
82733;Laerm;72790;51.538;5.968;2023-10-19T06:07:32;40.46;36.59;47.65;;
82733;Laerm;72790;51.538;5.968;2023-10-19T06:11:32;42.44;36.63;57.15;;
82733;Laerm;72790;51.538;5.968;2023-10-19T06:15:32;40.3;36.65;46.72;;
82733;Laerm;72790;51.538;5.968;2023-10-19T06:19:33;39.11;36.29;50.6;;
82733;Laerm;72790;51.538;5.968;2023-10-19T06:23:32;42.37;36.31;53.85;;
82733;Laerm;72790;51.538;5.968;2023-10-19T06:27:32;41.04;36.47;53.58;;
82733;Laerm;72790;51.538;5.968;2023-10-19T06:31:32;43.36;36.37;54.42;;
82733;Laerm;72790;51.538;5.968;2023-10-19T06:35:33;41.14;35.75;58.29;;
82733;Laerm;72790;51.538;5.968;2023-10-19T06:39:32;39.6;36.57;53.47;;
82733;Laerm;72790;51.538;5.968;2023-10-19T06:43:32;39.04;36.29;45.39;;
82733;Laerm;72790;51.538;5.968;2023-10-19T06:47:33;42.44;36.16;53.69;;
82733;Laerm;72790;51.538;5.968;2023-10-19T06:51:32;43.9;36.92;56.09;;
82733;Laerm;72790;51.538;5.968;2023-10-19T06:55:32;42.44;36.74;50.04;;
82733;Laerm;72790;51.538;5.968;2023-10-19T06:59:33;38.92;36.01;45.68;;
82733;Laerm;72790;51.538;5.968;2023-10-19T07:03:33;39.54;36.19;51.36;;
82733;Laerm;72790;51.538;5.968;2023-10-19T07:07:33;38.4;35.39;52.53;;
82733;Laerm;72790;51.538;5.968;2023-10-19T07:11:32;40.15;35.77;54.46;;
82733;Laerm;72790;51.538;5.968;2023-10-19T07:15:33;39.41;35.81;50.46;;
82733;Laerm;72790;51.538;5.968;2023-10-19T07:19:33;41.31;35.84;53.4;;
82733;Laerm;72790;51.538;5.968;2023-10-19T07:23:33;38.85;35.85;52.45;;
82733;Laerm;72790;51.538;5.968;2023-10-19T07:27:33;39.95;36.77;52.58;;
82733;Laerm;72790;51.538;5.968;2023-10-19T07:31:33;41.68;37.3;51.3;;
82733;Laerm;72790;51.538;5.968;2023-10-19T07:35:34;40.43;37.43;45.26;;
82733;Laerm;72790;51.538;5.968;2023-10-19T07:39:33;40.71;36.46;49.41;;
82733;Laerm;72790;51.538;5.968;2023-10-19T07:43:33;45.25;37.43;51.34;;
82733;Laerm;72790;51.538;5.968;2023-10-19T07:47:33;45.98;37.97;52.62;;
82733;Laerm;72790;51.538;5.968;2023-10-19T07:51:33;42.2;37.01;48.36;;
82733;Laerm;72790;51.538;5.968;2023-10-19T07:55:33;43.95;37.36;49.34;;
82733;Laerm;72790;51.538;5.968;2023-10-19T07:59:33;44.18;39.4;49.24;;
82733;Laerm;72790;51.538;5.968;2023-10-19T08:03:33;44.58;37.6;61.08;;
82733;Laerm;72790;51.538;5.968;2023-10-19T08:07:33;47.02;40.41;55.19;;
82733;Laerm;72790;51.538;5.968;2023-10-19T08:11:33;46.22;35.35;57.16;;
82733;Laerm;72790;51.538;5.968;2023-10-19T08:15:33;40.58;36.06;50.02;;
82733;Laerm;72790;51.538;5.968;2023-10-19T08:19:33;42.69;36.8;65.55;;
82733;Laerm;72790;51.538;5.968;2023-10-19T08:23:33;41.09;36.64;50.23;;
82733;Laerm;72790;51.538;5.968;2023-10-19T08:27:33;46.84;36.84;60.67;;
82733;Laerm;72790;51.538;5.968;2023-10-19T08:31:33;41.24;35.84;53.91;;
82733;Laerm;72790;51.538;5.968;2023-10-19T08:35:34;42.12;35.46;53.82;;
82733;Laerm;72790;51.538;5.968;2023-10-19T08:39:33;38.86;35.24;50.33;;
82733;Laerm;72790;51.538;5.968;2023-10-19T08:43:33;44.92;36.12;63.45;;
82733;Laerm;72790;51.538;5.968;2023-10-19T08:47:33;38.79;35.11;52.81;;
82733;Laerm;72790;51.538;5.968;2023-10-19T08:51:33;44.71;34.87;77.64;;
82733;Laerm;72790;51.538;5.968;2023-10-19T08:55:33;50.55;34.63;79.16;;
82733;Laerm;72790;51.538;5.968;2023-10-19T08:59:33;41.48;36.8;54.34;;
82733;Laerm;72790;51.538;5.968;2023-10-19T09:03:33;46.52;36.13;58.41;;
82733;Laerm;72790;51.538;5.968;2023-10-19T09:07:33;55.83;49.63;64.93;;
82733;Laerm;72790;51.538;5.968;2023-10-19T09:11:33;53.14;36.88;66.21;;
82733;Laerm;72790;51.538;5.968;2023-10-19T09:15:33;42.07;35.03;56.94;;
82733;Laerm;72790;51.538;5.968;2023-10-19T09:19:37;45.89;39.89;52.47;;
82733;Laerm;72790;51.538;5.968;2023-10-19T09:23:34;47.17;42.83;53.52;;
82733;Laerm;72790;51.538;5.968;2023-10-19T09:27:33;42.69;35.48;50.24;;
82733;Laerm;72790;51.538;5.968;2023-10-19T09:31:33;41.69;35.47;50.43;;
82733;Laerm;72790;51.538;5.968;2023-10-19T09:35:34;45.3;40.05;59.4;;
82733;Laerm;72790;51.538;5.968;2023-10-19T09:39:33;45.06;39.8;57.22;;
82733;Laerm;72790;51.538;5.968;2023-10-19T09:43:33;44.99;40.21;57.64;;
82733;Laerm;72790;51.538;5.968;2023-10-19T09:47:34;44.09;39.83;54.83;;
82733;Laerm;72790;51.538;5.968;2023-10-19T09:51:33;46.67;39.8;59.71;;
82733;Laerm;72790;51.538;5.968;2023-10-19T09:55:33;41.88;35.35;53.2;;
82733;Laerm;72790;51.538;5.968;2023-10-19T09:59:37;42.57;35.39;50.47;;
82733;Laerm;72790;51.538;5.968;2023-10-19T10:03:50;39.32;34.76;53.22;;
82733;Laerm;72790;51.538;5.968;2023-10-19T10:07:33;38.82;34.25;54.48;;
82733;Laerm;72790;51.538;5.968;2023-10-19T10:11:35;39.81;34.08;50.45;;
82733;Laerm;72790;51.538;5.968;2023-10-19T10:15:40;39.15;35.27;49.22;;
82733;Laerm;72790;51.538;5.968;2023-10-19T10:19:33;39.72;34.35;47.58;;
82733;Laerm;72790;51.538;5.968;2023-10-19T10:23:33;38.06;34.17;49.3;;
82733;Laerm;72790;51.538;5.968;2023-10-19T10:27:35;41.81;35.05;54.75;;
82733;Laerm;72790;51.538;5.968;2023-10-19T10:31:33;41.05;34.37;53.21;;
82733;Laerm;72790;51.538;5.968;2023-10-19T10:35:54;38.85;34.92;58.14;;
82733;Laerm;72790;51.538;5.968;2023-10-19T10:39:33;37.95;34.2;49.94;;
82733;Laerm;72790;51.538;5.968;2023-10-19T10:43:33;44.09;36.66;58.06;;
82733;Laerm;72790;51.538;5.968;2023-10-19T10:47:33;45.12;37.18;56.4;;
82733;Laerm;72790;51.538;5.968;2023-10-19T10:51:33;39.03;34.08;50.15;;
82733;Laerm;72790;51.538;5.968;2023-10-19T10:55:33;37.61;34.45;47.99;;
82733;Laerm;72790;51.538;5.968;2023-10-19T10:59:33;36.63;34.03;47.59;;
82733;Laerm;72790;51.538;5.968;2023-10-19T11:03:33;41.85;35.06;52.48;;
82733;Laerm;72790;51.538;5.968;2023-10-19T11:07:33;43.6;34.6;60.69;;
82733;Laerm;72790;51.538;5.968;2023-10-19T11:11:36;42.38;34.81;57.6;;
82733;Laerm;72790;51.538;5.968;2023-10-19T11:15:33;41.65;34.82;57.29;;
82733;Laerm;72790;51.538;5.968;2023-10-19T11:19:40;38.37;35.18;50.77;;
82733;Laerm;72790;51.538;5.968;2023-10-19T11:23:34;40.98;34.86;51.99;;
82733;Laerm;72790;51.538;5.968;2023-10-19T11:27:33;57.66;35.06;75.57;;
82733;Laerm;72790;51.538;5.968;2023-10-19T11:31:33;39.21;34.43;47.29;;
82733;Laerm;72790;51.538;5.968;2023-10-19T11:35:33;39.92;34.73;54.73;;
82733;Laerm;72790;51.538;5.968;2023-10-19T11:39:33;37.37;34.72;46.11;;
82733;Laerm;72790;51.538;5.968;2023-10-19T11:43:33;39.76;34.65;55.94;;
82733;Laerm;72790;51.538;5.968;2023-10-19T11:47:33;39.95;34.9;55.74;;
82733;Laerm;72790;51.538;5.968;2023-10-19T11:51:33;41.86;35.51;56.57;;
82733;Laerm;72790;51.538;5.968;2023-10-19T11:55:33;42.56;35.29;53.31;;
82733;Laerm;72790;51.538;5.968;2023-10-19T11:59:33;42.34;38.84;58.17;;
82733;Laerm;72790;51.538;5.968;2023-10-19T12:03:33;43.78;36.26;57.47;;
82733;Laerm;72790;51.538;5.968;2023-10-19T12:07:33;40.41;35.19;57.55;;
82733;Laerm;72790;51.538;5.968;2023-10-19T12:11:33;39.04;35.35;47.31;;
82733;Laerm;72790;51.538;5.968;2023-10-19T12:15:33;41.93;35.23;54.26;;
82733;Laerm;72790;51.538;5.968;2023-10-19T12:19:33;45.04;35.59;76.2;;
82733;Laerm;72790;51.538;5.968;2023-10-19T12:23:33;42.88;36.83;73.3;;
82733;Laerm;72790;51.538;5.968;2023-10-19T12:27:33;39.74;36.51;49.52;;
82733;Laerm;72790;51.538;5.968;2023-10-19T12:31:33;42.66;36.94;54.69;;
82733;Laerm;72790;51.538;5.968;2023-10-19T12:35:33;40.58;37.09;48.31;;
82733;Laerm;72790;51.538;5.968;2023-10-19T12:39:34;41.87;37.44;56.42;;
82733;Laerm;72790;51.538;5.968;2023-10-19T12:43:33;41.44;37.5;51.59;;
82733;Laerm;72790;51.538;5.968;2023-10-19T12:47:33;43.73;38.12;70.46;;
82733;Laerm;72790;51.538;5.968;2023-10-19T12:51:33;41.29;37.93;57.97;;
82733;Laerm;72790;51.538;5.968;2023-10-19T12:55:33;41.95;38.19;56.77;;
82733;Laerm;72790;51.538;5.968;2023-10-19T12:59:34;42.8;38.41;55.27;;
82733;Laerm;72790;51.538;5.968;2023-10-19T13:03:33;45.99;37.63;63.24;;
82733;Laerm;72790;51.538;5.968;2023-10-19T13:07:33;44.4;37.59;55.55;;
82733;Laerm;72790;51.538;5.968;2023-10-19T13:11:33;47.02;38.65;67.63;;
82733;Laerm;72790;51.538;5.968;2023-10-19T13:15:34;50.1;39.2;77.33;;
82733;Laerm;72790;51.538;5.968;2023-10-19T13:19:33;44.81;37.77;70.53;;
82733;Laerm;72790;51.538;5.968;2023-10-19T13:23:33;41.3;37.66;63.92;;
82733;Laerm;72790;51.538;5.968;2023-10-19T13:27:33;56.81;38.9;89.53;;
82733;Laerm;72790;51.538;5.968;2023-10-19T13:31:33;55.32;38.04;85.78;;
82733;Laerm;72790;51.538;5.968;2023-10-19T13:35:33;45.16;39.14;70.78;;
82733;Laerm;72790;51.538;5.968;2023-10-19T13:39:33;42.19;38.14;58.97;;
82733;Laerm;72790;51.538;5.968;2023-10-19T13:43:33;44.91;39.03;70.39;;
82733;Laerm;72790;51.538;5.968;2023-10-19T13:47:33;45.13;39.11;60.13;;
82733;Laerm;72790;51.538;5.968;2023-10-19T13:51:33;46.89;38.97;77.05;;
82733;Laerm;72790;51.538;5.968;2023-10-19T13:55:34;49.26;38.16;71.5;;
82733;Laerm;72790;51.538;5.968;2023-10-19T13:59:33;48.77;39.58;79.6;;
82733;Laerm;72790;51.538;5.968;2023-10-19T14:03:33;44.84;39.24;70.59;;
82733;Laerm;72790;51.538;5.968;2023-10-19T14:07:33;49.27;40.57;78.04;;
82733;Laerm;72790;51.538;5.968;2023-10-19T14:11:33;52.18;40.58;81.46;;
82733;Laerm;72790;51.538;5.968;2023-10-19T14:15:33;56.95;42.44;86.25;;
82733;Laerm;72790;51.538;5.968;2023-10-19T14:19:33;59.34;45.18;86.41;;
82733;Laerm;72790;51.538;5.968;2023-10-19T14:23:33;60.31;40.8;89.34;;
82733;Laerm;72790;51.538;5.968;2023-10-19T14:27:33;46.33;39.45;74.79;;
82733;Laerm;72790;51.538;5.968;2023-10-19T14:31:33;58.02;40.61;88.53;;
82733;Laerm;72790;51.538;5.968;2023-10-19T14:35:33;45.57;38.66;76.76;;
82733;Laerm;72790;51.538;5.968;2023-10-19T14:39:33;42.5;38.57;59.13;;
82733;Laerm;72790;51.538;5.968;2023-10-19T14:43:33;41.47;37.8;57.67;;
82733;Laerm;72790;51.538;5.968;2023-10-19T14:47:33;45.99;38.1;78.13;;
82733;Laerm;72790;51.538;5.968;2023-10-19T14:51:33;41.3;38.09;56.53;;
82733;Laerm;72790;51.538;5.968;2023-10-19T14:55:33;42.22;39.03;50.57;;
82733;Laerm;72790;51.538;5.968;2023-10-19T14:59:33;41.8;38.01;49.41;;
82733;Laerm;72790;51.538;5.968;2023-10-19T15:03:33;50.16;39.31;79.65;;
82733;Laerm;72790;51.538;5.968;2023-10-19T15:07:33;49.34;39.38;79.05;;
82733;Laerm;72790;51.538;5.968;2023-10-19T15:11:33;46.74;40.12;72.89;;
82733;Laerm;72790;51.538;5.968;2023-10-19T15:15:33;46.37;38.99;77;;
82733;Laerm;72790;51.538;5.968;2023-10-19T15:19:33;41.19;38.2;58.73;;
82733;Laerm;72790;51.538;5.968;2023-10-19T15:23:33;43.35;37.42;62.48;;
82733;Laerm;72790;51.538;5.968;2023-10-19T15:27:33;40.09;37.2;47.94;;
82733;Laerm;72790;51.538;5.968;2023-10-19T15:31:33;40.74;37.87;50.73;;
82733;Laerm;72790;51.538;5.968;2023-10-19T15:35:33;42.4;38.19;53.21;;
82733;Laerm;72790;51.538;5.968;2023-10-19T15:39:33;43.13;37.68;52.11;;
82733;Laerm;72790;51.538;5.968;2023-10-19T15:43:33;42.24;37.9;52.12;;
82733;Laerm;72790;51.538;5.968;2023-10-19T15:47:33;40.93;38.03;59.13;;
82733;Laerm;72790;51.538;5.968;2023-10-19T15:51:33;40.49;37.82;50.03;;
82733;Laerm;72790;51.538;5.968;2023-10-19T15:55:33;40.35;37.54;58.98;;
82733;Laerm;72790;51.538;5.968;2023-10-19T15:59:33;41.46;37.73;58.19;;
82733;Laerm;72790;51.538;5.968;2023-10-19T16:03:33;40.84;37.29;53.79;;
82733;Laerm;72790;51.538;5.968;2023-10-19T16:07:33;42.14;37.68;51.14;;
82733;Laerm;72790;51.538;5.968;2023-10-19T16:11:33;43.43;37.11;59.92;;
82733;Laerm;72790;51.538;5.968;2023-10-19T16:15:33;43.86;36.46;57.15;;
82733;Laerm;72790;51.538;5.968;2023-10-19T16:19:33;42.16;37.47;50.19;;
82733;Laerm;72790;51.538;5.968;2023-10-19T16:23:33;42.49;36.92;55.71;;
82733;Laerm;72790;51.538;5.968;2023-10-19T16:27:33;43.01;37.27;56.63;;
82733;Laerm;72790;51.538;5.968;2023-10-19T16:31:34;44.1;36.85;50.66;;
82733;Laerm;72790;51.538;5.968;2023-10-19T16:35:33;44.6;37.46;51.96;;
82733;Laerm;72790;51.538;5.968;2023-10-19T16:39:33;42.43;37.13;49.38;;
82733;Laerm;72790;51.538;5.968;2023-10-19T16:43:33;42.08;37.23;50.57;;
82733;Laerm;72790;51.538;5.968;2023-10-19T16:47:33;43.79;36.99;52.37;;
82733;Laerm;72790;51.538;5.968;2023-10-19T16:51:34;46.85;38.33;61.87;;
82733;Laerm;72790;51.538;5.968;2023-10-19T16:55:33;43.64;37.51;55.28;;
82733;Laerm;72790;51.538;5.968;2023-10-19T16:59:33;40.17;36.8;49.36;;
82733;Laerm;72790;51.538;5.968;2023-10-19T17:03:33;40.97;36.73;54.18;;
82733;Laerm;72790;51.538;5.968;2023-10-19T17:07:33;44.14;36.86;68.71;;
82733;Laerm;72790;51.538;5.968;2023-10-19T17:11:33;42.08;37.04;62;;
82733;Laerm;72790;51.538;5.968;2023-10-19T17:15:33;41.07;35.94;57.48;;
82733;Laerm;72790;51.538;5.968;2023-10-19T17:19:34;39.95;36.58;56.73;;
82733;Laerm;72790;51.538;5.968;2023-10-19T17:23:33;39.83;36.96;50.52;;
82733;Laerm;72790;51.538;5.968;2023-10-19T17:27:33;39.44;36.46;56.25;;
82733;Laerm;72790;51.538;5.968;2023-10-19T17:31:34;39.95;35.98;51.58;;
82733;Laerm;72790;51.538;5.968;2023-10-19T17:35:34;42.14;35.98;61.66;;
82733;Laerm;72790;51.538;5.968;2023-10-19T17:39:34;41.15;36.26;59.93;;
82733;Laerm;72790;51.538;5.968;2023-10-19T17:43:33;39.92;36.56;46.75;;
82733;Laerm;72790;51.538;5.968;2023-10-19T17:47:34;39.36;36.41;52.37;;
82733;Laerm;72790;51.538;5.968;2023-10-19T17:51:34;40.51;36.9;48.14;;
82733;Laerm;72790;51.538;5.968;2023-10-19T17:55:34;39.88;37.26;46.18;;
82733;Laerm;72790;51.538;5.968;2023-10-19T17:59:34;40.78;37.58;49.26;;
82733;Laerm;72790;51.538;5.968;2023-10-19T18:03:34;39.86;36.95;51.77;;
82733;Laerm;72790;51.538;5.968;2023-10-19T18:07:34;42.93;37.27;59.12;;
82733;Laerm;72790;51.538;5.968;2023-10-19T18:11:34;40.51;36.74;52.94;;
82733;Laerm;72790;51.538;5.968;2023-10-19T18:15:35;41.55;39.18;50.05;;
82733;Laerm;72790;51.538;5.968;2023-10-19T18:19:34;41.52;39.03;47.04;;
82733;Laerm;72790;51.538;5.968;2023-10-19T18:23:34;42.29;39.22;51.96;;
82733;Laerm;72790;51.538;5.968;2023-10-19T18:27:34;42.24;39.17;55.33;;
82733;Laerm;72790;51.538;5.968;2023-10-19T18:31:34;42.42;39.07;65.98;;
82733;Laerm;72790;51.538;5.968;2023-10-19T18:35:34;41.99;38.37;63.33;;
82733;Laerm;72790;51.538;5.968;2023-10-19T18:39:34;39.21;35.93;49.54;;
82733;Laerm;72790;51.538;5.968;2023-10-19T18:43:34;39.22;36.5;54.08;;
82733;Laerm;72790;51.538;5.968;2023-10-19T18:47:34;40.59;36.03;61.63;;
82733;Laerm;72790;51.538;5.968;2023-10-19T18:51:34;39.81;36.3;53.62;;
82733;Laerm;72790;51.538;5.968;2023-10-19T18:55:34;39.08;35.71;48.31;;
82733;Laerm;72790;51.538;5.968;2023-10-19T18:59:34;39.38;36.07;60.4;;
82733;Laerm;72790;51.538;5.968;2023-10-19T19:03:34;39.45;35.55;52.99;;
82733;Laerm;72790;51.538;5.968;2023-10-19T19:07:34;39.26;35.45;46.48;;
82733;Laerm;72790;51.538;5.968;2023-10-19T19:11:34;37.7;35.35;48.93;;
82733;Laerm;72790;51.538;5.968;2023-10-19T19:15:34;38.4;35.24;48.09;;
82733;Laerm;72790;51.538;5.968;2023-10-19T19:19:34;38.81;35.41;58.14;;
82733;Laerm;72790;51.538;5.968;2023-10-19T19:23:34;38.6;35.8;47.74;;
82733;Laerm;72790;51.538;5.968;2023-10-19T19:27:34;41.47;35.42;56.85;;
82733;Laerm;72790;51.538;5.968;2023-10-19T19:31:34;38.57;35.37;46.77;;
82733;Laerm;72790;51.538;5.968;2023-10-19T19:35:34;39.63;36.27;48.37;;
82733;Laerm;72790;51.538;5.968;2023-10-19T19:39:34;39.58;36;53.83;;
82733;Laerm;72790;51.538;5.968;2023-10-19T19:43:34;38.29;34.98;46.25;;
82733;Laerm;72790;51.538;5.968;2023-10-19T19:47:34;38.3;35.28;49.4;;
82733;Laerm;72790;51.538;5.968;2023-10-19T19:51:34;38.03;35.36;47.94;;
82733;Laerm;72790;51.538;5.968;2023-10-19T19:55:34;40.21;35.31;48.74;;
82733;Laerm;72790;51.538;5.968;2023-10-19T19:59:34;38.18;35.32;43.47;;
82733;Laerm;72790;51.538;5.968;2023-10-19T20:03:34;37.98;34.85;49.88;;
82733;Laerm;72790;51.538;5.968;2023-10-19T20:07:34;41.88;35.11;70.84;;
82733;Laerm;72790;51.538;5.968;2023-10-19T20:11:34;38.34;35.79;49.88;;
82733;Laerm;72790;51.538;5.968;2023-10-19T20:15:34;38.78;35.29;47.08;;
82733;Laerm;72790;51.538;5.968;2023-10-19T20:19:34;38.04;35.24;56.07;;
82733;Laerm;72790;51.538;5.968;2023-10-19T20:23:34;37.74;35.01;44.82;;
82733;Laerm;72790;51.538;5.968;2023-10-19T20:27:34;38.22;34.98;58.85;;
82733;Laerm;72790;51.538;5.968;2023-10-19T20:31:34;37.96;34.93;51.63;;
82733;Laerm;72790;51.538;5.968;2023-10-19T20:35:34;38.35;34.3;64.74;;
82733;Laerm;72790;51.538;5.968;2023-10-19T20:39:34;36.69;34.22;53.69;;
82733;Laerm;72790;51.538;5.968;2023-10-19T20:43:34;37.2;34.32;43.92;;
82733;Laerm;72790;51.538;5.968;2023-10-19T20:47:34;37.01;34.78;40.71;;
82733;Laerm;72790;51.538;5.968;2023-10-19T20:51:34;36.46;34.41;46.49;;
82733;Laerm;72790;51.538;5.968;2023-10-19T20:55:34;36.65;34.4;43.69;;
82733;Laerm;72790;51.538;5.968;2023-10-19T20:59:36;37.9;34.45;51.41;;
82733;Laerm;72790;51.538;5.968;2023-10-19T21:03:34;37.27;34.09;47.5;;
82733;Laerm;72790;51.538;5.968;2023-10-19T21:07:34;36.34;33.99;41.13;;
82733;Laerm;72790;51.538;5.968;2023-10-19T21:11:34;36.76;34.37;41.02;;
82733;Laerm;72790;51.538;5.968;2023-10-19T21:15:34;40.49;34.07;71.48;;
82733;Laerm;72790;51.538;5.968;2023-10-19T21:19:34;36.43;33.63;41.72;;
82733;Laerm;72790;51.538;5.968;2023-10-19T21:23:34;38.19;34.71;55.73;;
82733;Laerm;72790;51.538;5.968;2023-10-19T21:27:34;38.32;33.58;49.07;;
82733;Laerm;72790;51.538;5.968;2023-10-19T21:31:34;36.46;33.88;43.57;;
82733;Laerm;72790;51.538;5.968;2023-10-19T21:35:34;36.42;34.1;42.86;;
82733;Laerm;72790;51.538;5.968;2023-10-19T21:39:34;36.18;34.02;45.57;;
82733;Laerm;72790;51.538;5.968;2023-10-19T21:43:34;35.92;33.61;41.48;;
82733;Laerm;72790;51.538;5.968;2023-10-19T21:47:34;36.81;34.16;46.83;;
82733;Laerm;72790;51.538;5.968;2023-10-19T21:51:34;36.98;34.02;47.3;;
82733;Laerm;72790;51.538;5.968;2023-10-19T21:55:34;36.69;34.17;49.68;;
82733;Laerm;72790;51.538;5.968;2023-10-19T21:59:34;36.86;33.23;45.58;;
82733;Laerm;72790;51.538;5.968;2023-10-19T22:03:34;36.38;33.63;44.75;;
82733;Laerm;72790;51.538;5.968;2023-10-19T22:07:34;36.92;34.13;45.05;;
82733;Laerm;72790;51.538;5.968;2023-10-19T22:11:34;37.01;33.68;52.96;;
82733;Laerm;72790;51.538;5.968;2023-10-19T22:15:34;35.84;33.78;40.32;;
82733;Laerm;72790;51.538;5.968;2023-10-19T22:19:34;35.39;33.47;39.28;;
82733;Laerm;72790;51.538;5.968;2023-10-19T22:23:34;35.07;32.73;43.56;;
82733;Laerm;72790;51.538;5.968;2023-10-19T22:27:34;35.62;33.08;48.79;;
82733;Laerm;72790;51.538;5.968;2023-10-19T22:31:34;35.29;32.92;42.33;;